< < Back
Terminal Aerodrome Forecast


Current Version              Previous Versions:   1  2  3  4  5  6  7  8  9  

Terminal Aerodrome Forecast

364
FTUS44 KHUN 181739
TAFHSV
TAF
KHSV 181739Z 1818/1918 11009KT P6SM VCSH BKN040 OVC100
     FM182100 10008KT P6SM BKN040
     FM190400 04007KT P6SM SCT060
     FM191400 05015G25KT P6SM SCT120=



Latest METAR

172
SAUS80 KWBC 190700 RRA
MTRHSV
METAR KHSV 190653Z AUTO 32005KT 10SM CLR 11/08 A3014 RMK AO2 SLP204
T01060083


USA.gov is the U.S. government's official web portal to all federal, state and local government web resources and services.